Time;durP1;ratioP1;P1;durP2;ratioP2;P2;SDS_P1;SDS_P2;PMS_P1;PMS_P2;Temp;Humidity;BMP_temperature;BMP_pressure;BME280_temperature;BME280_humidity;BME280_pressure;Samples;Min_cycle;Max_cycle;Signal;HPM_P1;HPM_P2
2022/08/04 00:01:52;;;;;;;7.47;5.37;;;;;;;18.05;100.00;99262.03;1741077;82;21112;-76
2022/08/04 00:04:24;;;;;;;6.53;5.37;;;;;;;18.03;100.00;99269.68;1717292;82;21259;-75
2022/08/04 00:07:08;;;;;;;7.72;6.00;;;;;;;18.01;100.00;99270.27;1721354;82;21097;-76
2022/08/04 00:10:00;;;;;;;5.87;5.37;;;;;;;17.99;100.00;99269.06;1694754;82;21569;-76
2022/08/04 00:12:34;;;;;;;6.37;5.20;;;;;;;17.98;100.00;99273.16;1709497;83;21152;-79
2022/08/04 00:15:04;;;;;;;8.08;6.17;;;;;;;17.95;100.00;99269.44;1704288;82;21136;-76
2022/08/04 00:17:37;;;;;;;6.75;6.15;;;;;;;17.92;100.00;99277.08;1709542;82;21863;-76
2022/08/04 00:20:05;;;;;;;6.17;5.50;;;;;;;17.89;100.00;99278.14;1718098;82;20994;-76
2022/08/04 00:22:33;;;;;;;9.88;5.85;;;;;;;17.88;100.00;99284.36;1692230;82;20998;-77
2022/08/04 00:25:04;;;;;;;6.40;5.83;;;;;;;17.88;100.00;99279.09;1735886;81;20965;-77
2022/08/04 00:27:31;;;;;;;6.15;5.55;;;;;;;17.88;100.00;99278.25;1732388;81;20985;-77
2022/08/04 00:29:58;;;;;;;6.62;6.03;;;;;;;17.88;100.00;99275.63;1712541;82;21493;-77
2022/08/04 00:32:28;;;;;;;8.08;7.03;;;;;;;17.87;100.00;99279.20;1687002;83;21006;-76
2022/08/04 00:34:54;;;;;;;5.72;5.25;;;;;;;17.83;100.00;99274.64;1718494;82;21150;-77
2022/08/04 00:37:21;;;;;;;7.78;6.05;;;;;;;17.84;100.00;99282.06;1729639;82;21010;-77
2022/08/04 00:39:48;;;;;;;7.15;5.47;;;;;;;17.84;100.00;99286.84;1729897;82;21165;-77
2022/08/04 00:42:29;;;;;;;6.03;5.45;;;;;;;17.85;100.00;99292.95;1725770;82;21204;-77
2022/08/04 00:45:37;;;;;;;6.05;5.55;;;;;;;17.89;100.00;99293.92;1716295;82;21045;-76
2022/08/04 00:48:38;;;;;;;6.80;6.20;;;;;;;17.94;100.00;99292.75;1728811;82;21491;-77
2022/08/04 00:51:16;;;;;;;6.40;5.80;;;;;;;17.98;100.00;99292.42;1720558;81;21045;-78
2022/08/04 00:53:56;;;;;;;6.45;5.25;;;;;;;18.02;100.00;99290.38;1694291;82;21176;-76
2022/08/04 00:57:10;;;;;;;5.92;5.40;;;;;;;18.03;100.00;99298.16;1723083;82;21853;-76
2022/08/04 01:00:01;;;;;;;8.18;5.78;;;;;;;18.04;100.00;99299.83;1679686;85;21066;-77
2022/08/04 01:02:56;;;;;;;7.28;6.25;;;;;;;18.08;100.00;99297.81;1730367;82;20998;-77
2022/08/04 01:05:49;;;;;;;5.62;4.83;;;;;;;18.07;100.00;99290.39;1709231;82;20962;-76
2022/08/04 01:08:29;;;;;;;;;;;;;;;18.09;100.00;99299.50;1726636;82;21009;-76
2022/08/04 01:11:53;;;;;;;8.85;6.30;;;;;;;18.07;100.00;99292.19;1726791;82;21217;-77
2022/08/04 01:14:49;;;;;;;5.50;5.00;;;;;;;18.03;100.00;99290.73;1726500;82;21193;-76
2022/08/04 01:17:37;;;;;;;5.75;5.28;;;;;;;18.03;100.00;99296.00;1722786;82;21414;-76
2022/08/04 01:20:11;;;;;;;6.53;5.95;;;;;;;18.04;100.00;99291.09;1721368;82;21533;-77
2022/08/04 01:23:16;;;;;;;5.75;5.25;;;;;;;18.03;100.00;99302.58;1724180;82;20966;-76
2022/08/04 01:26:26;;;;;;;5.97;5.37;;;;;;;18.02;100.00;99303.05;1718985;82;21723;-77
2022/08/04 01:29:09;;;;;;;7.00;5.90;;;;;;;18.01;100.00;99307.95;1691843;82;21176;-77
2022/08/04 01:32:05;;;;;;;7.08;5.33;;;;;;;18.01;100.00;99315.00;1723370;82;20969;-77
2022/08/04 01:34:42;;;;;;;6.58;6.03;;;;;;;18.01;100.00;99310.58;1710436;82;21293;-76
2022/08/04 01:37:13;;;;;;;6.72;6.12;;;;;;;18.04;100.00;99308.20;1699689;82;21070;-76
2022/08/04 01:39:45;;;;;;;6.22;5.72;;;;;;;18.06;100.00;99304.98;1688427;82;21156;-76
2022/08/04 01:42:12;;;;;;;8.60;6.37;;;;;;;18.08;100.00;99305.23;1716512;82;21418;-77
2022/08/04 01:44:39;;;;;;;7.15;6.47;;;;;;;18.09;100.00;99305.59;1688358;82;20982;-77
2022/08/04 01:47:07;;;;;;;8.48;7.25;;;;;;;18.10;100.00;99311.23;1669950;84;21022;-77
2022/08/04 01:49:34;;;;;;;7.97;7.17;;;;;;;18.10;100.00;99297.23;1733917;82;21104;-77
2022/08/04 01:52:00;;;;;;;9.03;8.13;;;;;;;18.10;100.00;99296.75;1686492;84;21726;-77
2022/08/04 01:54:27;;;;;;;7.80;7.03;;;;;;;18.12;100.00;99298.80;1666577;84;21070;-77
2022/08/04 01:56:55;;;;;;;7.62;6.92;;;;;;;18.13;100.00;99295.69;1683535;84;21532;-77
2022/08/04 01:59:21;;;;;;;9.20;8.30;;;;;;;18.14;100.00;99291.63;1678924;84;21507;-78
2022/08/04 02:01:48;;;;;;;8.43;7.58;;;;;;;18.15;100.00;99290.67;1674186;84;21012;-77
2022/08/04 02:04:18;;;;;;;9.95;7.62;;;;;;;18.17;100.00;99295.82;1668566;84;21122;-77
2022/08/04 02:07:14;;;;;;;9.90;8.63;;;;;;;18.18;100.00;99290.92;1674714;85;21006;-77
2022/08/04 02:10:04;;;;;;;9.53;8.50;;;;;;;18.19;100.00;99287.30;1673592;85;21084;-77
2022/08/04 02:12:54;;;;;;;10.82;8.78;;;;;;;18.19;100.00;99287.30;1670139;84;21078;-77
2022/08/04 02:15:46;;;;;;;9.43;8.60;;;;;;;18.19;100.00;99295.20;1681402;84;21426;-78
2022/08/04 02:18:26;;;;;;;9.28;8.43;;;;;;;18.19;100.00;99289.94;1683538;84;21218;-78
2022/08/04 02:21:00;;;;;;;9.80;8.90;;;;;;;18.19;100.00;99292.09;1670070;83;20975;-78
2022/08/04 02:23:42;;;;;;;10.68;9.48;;;;;;;18.19;100.00;99292.57;1666047;84;21226;-77
2022/08/04 02:26:19;;;;;;;13.78;9.68;;;;;;;18.21;100.00;99299.87;1666614;84;20969;-78
2022/08/04 02:29:22;;;;;;;11.22;10.13;;;;;;;18.21;100.00;99292.82;1678374;84;21096;-77
2022/08/04 02:32:00;;;;;;;15.07;9.13;;;;;;;18.22;100.00;99294.50;1677435;84;21570;-77
2022/08/04 02:34:44;;;;;;;11.85;8.23;;;;;;;18.24;100.00;99303.12;1682784;84;20974;-77
2022/08/04 02:37:10;;;;;;;9.95;8.95;;;;;;;18.23;100.00;99302.77;1719370;82;20963;-78
2022/08/04 02:39:37;;;;;;;10.18;9.13;;;;;;;18.21;100.00;99306.45;1733675;82;21042;-77
2022/08/04 02:42:04;;;;;;;9.18;8.38;;;;;;;18.22;100.00;99304.19;1709719;82;21005;-77
2022/08/04 02:44:31;;;;;;;10.30;9.05;;;;;;;18.23;100.00;99297.97;1689338;84;21211;-76
2022/08/04 02:47:00;;;;;;;10.00;9.10;;;;;;;18.25;100.00;99294.27;1725473;82;21133;-77
2022/08/04 02:49:26;;;;;;;9.55;8.65;;;;;;;18.28;100.00;99305.53;1713859;82;21558;-77
2022/08/04 02:51:54;;;;;;;9.65;8.58;;;;;;;18.31;100.00;99302.67;1726085;82;21018;-77
2022/08/04 02:54:32;;;;;;;11.57;10.45;;;;;;;18.29;100.00;99297.52;1693168;82;21529;-78
2022/08/04 02:57:00;;;;;;;13.10;9.88;;;;;;;18.29;100.00;99297.52;1725486;82;21240;-78
2022/08/04 02:59:28;;;;;;;11.00;9.90;;;;;;;18.31;100.00;99297.41;1687848;83;21018;-78
2022/08/04 03:01:55;;;;;;;11.20;10.10;;;;;;;18.30;100.00;99297.04;1650495;85;21681;-78
2022/08/04 03:04:44;;;;;;;10.70;9.70;;;;;;;18.32;100.00;99293.81;1720262;82;21578;-78
2022/08/04 03:07:39;;;;;;;11.35;10.20;;;;;;;18.31;100.00;99289.03;1720165;82;20943;-78
2022/08/04 03:10:22;;;;;;;10.70;9.75;;;;;;;18.29;100.00;99290.94;1712018;82;21625;-78
2022/08/04 03:13:12;;;;;;;11.48;8.90;;;;;;;18.29;100.00;99294.88;1686704;83;20951;-78
2022/08/04 03:15:53;;;;;;;10.50;9.48;;;;;;;18.31;100.00;99291.66;1650472;86;20998;-78
2022/08/04 03:19:08;;;;;;;10.98;9.85;;;;;;;18.33;100.00;99298.97;1730367;82;21074;-77
2022/08/04 03:22:07;;;;;;;10.03;9.03;;;;;;;18.35;100.00;99294.42;1734681;81;21085;-77
2022/08/04 03:25:03;;;;;;;9.48;8.58;;;;;;;18.38;100.00;99298.63;1667662;83;21378;-78
2022/08/04 03:27:53;;;;;;;11.25;10.10;;;;;;;18.40;100.00;99295.37;1731612;82;20971;-78
2022/08/04 03:30:26;;;;;;;11.35;10.35;;;;;;;18.43;100.00;99295.98;1723881;82;20998;-79
2022/08/04 03:33:34;;;;;;;12.03;9.98;;;;;;;18.44;100.00;99294.19;1724293;82;21073;-78
2022/08/04 03:36:36;;;;;;;12.70;10.60;;;;;;;18.44;100.00;99296.34;1680202;85;20971;-79
2022/08/04 03:39:33;;;;;;;11.78;10.65;;;;;;;18.44;100.00;99298.14;1681005;84;21113;-77
2022/08/04 03:42:11;;;;;;;11.45;10.45;;;;;;;18.45;100.00;99301.97;1745459;81;20970;-78
2022/08/04 03:44:46;;;;;;;11.65;9.98;;;;;;;18.45;100.00;99304.60;1732999;81;21085;-78
2022/08/04 03:47:52;;;;;;;10.58;9.68;;;;;;;18.45;100.00;99308.55;1731287;82;20983;-77
2022/08/04 03:50:33;;;;;;;11.88;9.75;;;;;;;18.45;100.00;99306.40;1679570;85;21005;-77
2022/08/04 03:53:32;;;;;;;11.22;10.23;;;;;;;18.44;100.00;99311.30;1650696;86;21146;-78
2022/08/04 03:56:27;;;;;;;11.65;10.55;;;;;;;18.44;100.00;99309.51;1730999;82;20999;-77
2022/08/04 03:59:23;;;;;;;12.47;11.38;;;;;;;18.46;100.00;99305.44;1680106;85;20978;-78
2022/08/04 04:02:35;;;;;;;12.20;11.00;;;;;;;18.50;100.00;99316.95;1661482;84;20998;-78
2022/08/04 04:05:50;;;;;;;12.05;10.95;;;;;;;18.54;100.00;99308.34;1698683;83;20945;-78
2022/08/04 04:08:53;;;;;;;11.90;9.90;;;;;;;18.59;100.00;99303.56;1737669;82;21747;-78
2022/08/04 04:11:47;;;;;;;13.50;10.75;;;;;;;18.66;100.00;99311.37;1727525;82;21425;-79
2022/08/04 04:14:53;;;;;;;11.20;10.20;;;;;;;18.77;100.00;99313.19;1724310;82;21025;-78
2022/08/04 04:17:43;;;;;;;10.15;9.35;;;;;;;18.85;100.00;99310.30;1688661;83;20963;-78
2022/08/04 04:20:27;;;;;;;11.15;10.05;;;;;;;18.92;100.00;99315.95;1714060;82;21422;-79
2022/08/04 04:23:11;;;;;;;10.90;9.78;;;;;;;18.97;100.00;99314.27;1731981;82;21133;-78
2022/08/04 04:26:12;;;;;;;9.93;9.13;;;;;;;19.00;100.00;99312.20;1720044;82;21092;-78
2022/08/04 04:29:20;;;;;;;10.48;9.63;;;;;;;19.07;100.00;99316.53;1733979;82;21439;-79
2022/08/04 04:32:15;;;;;;;10.03;9.15;;;;;;;19.13;100.00;99316.89;1724725;82;21481;-78
2022/08/04 04:35:25;;;;;;;10.43;9.38;;;;;;;19.21;100.00;99307.04;1731302;82;20947;-78
2022/08/04 04:38:30;;;;;;;12.80;10.03;;;;;;;19.28;100.00;99322.74;1739935;81;21045;-78
2022/08/04 04:41:11;;;;;;;10.88;9.88;;;;;;;19.36;100.00;99310.27;1680252;83;21514;-78
2022/08/04 04:44:18;;;;;;;11.70;10.30;;;;;;;19.42;100.00;99317.19;1711278;81;21053;-79
2022/08/04 04:46:56;;;;;;;11.20;10.20;;;;;;;19.47;100.00;99315.03;1692603;82;20994;-79
2022/08/04 04:49:49;;;;;;;10.55;9.75;;;;;;;19.50;100.00;99314.83;1688601;82;21045;-78
2022/08/04 04:52:31;;;;;;;11.03;9.95;;;;;;;19.53;100.00;99317.70;1725184;82;21558;-78
2022/08/04 04:55:21;;;;;;;10.25;9.35;;;;;;;19.55;100.00;99318.41;1728242;82;21018;-79
2022/08/04 04:57:50;;;;;;;10.88;9.98;;;;;;;19.56;100.00;99316.14;1708943;82;21481;-79
2022/08/04 05:00:17;;;;;;;13.05;10.32;;;;;;;19.59;100.00;99318.50;1690948;83;21033;-78
2022/08/04 05:03:13;;;;;;;10.93;9.80;;;;;;;19.63;100.00;99319.09;1678218;84;21474;-80
2022/08/04 05:05:55;;;;;;;10.18;9.15;;;;;;;19.65;100.00;99319.81;1665295;84;21653;-78
2022/08/04 05:08:47;;;;;;;10.00;9.20;;;;;;;19.65;100.00;99320.65;1733319;81;20962;-79
2022/08/04 05:11:40;;;;;;;10.95;9.98;;;;;;;19.68;100.00;99320.41;1692944;83;21057;-79
2022/08/04 05:14:14;;;;;;;15.60;10.63;;;;;;;19.71;100.00;99320.64;1712558;82;21007;-80
2022/08/04 05:16:46;;;;;;;12.28;11.10;;;;;;;19.79;100.00;99324.31;1697362;83;21557;-80
2022/08/04 05:19:27;;;;;;;13.80;11.28;;;;;;;19.89;100.00;99324.41;1762419;80;21100;-80
2022/08/04 05:22:05;;;;;;;12.20;11.10;;;;;;;20.04;100.00;99328.91;1763333;80;21020;-78
2022/08/04 05:24:36;;;;;;;17.07;11.08;;;;;;;20.16;100.00;99324.78;1771042;80;21082;-78
2022/08/04 05:27:06;;;;;;;11.50;10.38;;;;;;;20.27;100.00;99327.36;1778864;79;21103;-79
2022/08/04 05:29:39;;;;;;;10.55;9.75;;;;;;;20.39;100.00;99325.51;1778385;79;21066;-78
2022/08/04 05:32:11;;;;;;;14.33;9.68;;;;;;;20.50;100.00;99315.37;1777823;80;21115;-78
2022/08/04 05:34:51;;;;;;;10.48;8.90;;;;;;;20.60;100.00;99321.53;1772508;80;21028;-79
2022/08/04 05:37:18;;;;;;;10.10;9.10;;;;;;;20.69;100.00;99322.56;1781357;80;21463;-78
2022/08/04 05:39:57;;;;;;;10.50;9.48;;;;;;;20.73;100.00;99328.80;1787501;78;21000;-80
2022/08/04 05:42:25;;;;;;;9.85;8.95;;;;;;;20.73;100.00;99333.23;1773663;79;21555;-74
2022/08/04 05:44:51;;;;;;;16.60;12.13;;;;;;;20.72;100.00;99331.08;1767174;80;21131;-77
2022/08/04 05:47:20;;;;;;;9.73;8.23;;;;;;;20.70;100.00;99334.81;1780402;80;21142;-74
2022/08/04 05:49:47;;;;;;;11.25;9.78;;;;;;;20.68;100.00;99342.03;1751334;80;21616;-75
2022/08/04 05:52:13;;;;;;;9.88;8.98;;;;;;;20.63;100.00;99332.69;1695264;81;21076;-74
2022/08/04 05:54:40;;;;;;;9.03;8.05;;;;;;;20.58;100.00;99341.48;1714410;81;21081;-74
2022/08/04 05:57:07;;;;;;;9.20;8.40;;;;;;;20.51;100.00;99340.83;1734273;81;21479;-75
2022/08/04 05:59:36;;;;;;;9.95;9.05;;;;;;;20.46;100.00;99345.17;1734843;81;21125;-74
2022/08/04 06:02:03;;;;;;;10.35;8.93;;;;;;;20.44;100.00;99340.98;1735806;81;21045;-75
2022/08/04 06:04:40;;;;;;;10.40;9.25;;;;;;;20.41;100.00;99343.39;1748743;81;21857;-74
2022/08/04 06:07:09;;;;;;;10.25;9.08;;;;;;;20.43;100.00;99341.94;1750005;81;21061;-75
2022/08/04 06:09:40;;;;;;;11.68;8.93;;;;;;;20.46;100.00;99345.17;1733096;80;21232;-75
2022/08/04 06:12:18;;;;;;;9.45;8.48;;;;;;;20.49;100.00;99342.27;1737167;80;21314;-75
2022/08/04 06:14:48;;;;;;;12.45;9.20;;;;;;;20.53;100.00;99350.30;1744464;80;21032;-74
2022/08/04 06:17:25;;;;;;;9.35;8.53;;;;;;;20.59;100.00;99341.00;1755342;80;21024;-74
2022/08/04 06:19:52;;;;;;;10.35;9.00;;;;;;;20.63;100.00;99344.58;1713375;81;21038;-73
2022/08/04 06:22:19;;;;;;;11.25;9.55;;;;;;;20.70;100.00;99344.06;1719561;81;21159;-73
2022/08/04 06:24:46;;;;;;;9.30;8.50;;;;;;;20.73;100.00;99345.97;1741124;81;20982;-73
2022/08/04 06:27:14;;;;;;;10.80;9.90;;;;;;;20.74;100.00;99352.94;1719657;81;21082;-72
2022/08/04 06:29:41;;;;;;;11.20;10.05;;;;;;;20.73;100.00;99357.86;1723520;81;21028;-73
2022/08/04 06:32:26;;;;;;;11.18;10.08;;;;;;;20.74;100.00;99350.29;1772751;80;21102;-73
2022/08/04 06:34:55;;;;;;;10.72;9.78;;;;;;;20.78;100.00;99356.16;1771228;80;21142;-73
2022/08/04 06:37:22;;;;;;;10.60;9.38;;;;;;;20.80;100.00;99362.13;1776817;79;21164;-75
2022/08/04 06:39:49;;;;;;;11.15;10.15;;;;;;;20.82;100.00;99358.38;1732910;81;21036;-73
2022/08/04 06:42:19;;;;;;;16.62;11.90;;;;;;;20.81;100.00;99363.80;1734203;80;20965;-76
2022/08/04 06:44:48;;;;;;;10.72;9.73;;;;;;;20.84;100.00;99367.51;1757021;81;21193;-74
2022/08/04 06:47:18;;;;;;;11.15;9.70;;;;;;;20.85;100.00;99361.25;1749363;81;21138;-75
2022/08/04 06:49:50;;;;;;;10.50;9.60;;;;;;;20.90;100.00;99365.19;1763429;81;21080;-75
2022/08/04 06:52:18;;;;;;;12.63;10.08;;;;;;;20.91;100.00;99368.67;1760675;79;21186;-74
2022/08/04 06:54:51;;;;;;;11.05;10.13;;;;;;;20.92;100.00;99364.58;1764413;81;21090;-75
2022/08/04 06:57:21;;;;;;;11.30;10.40;;;;;;;20.92;100.00;99372.51;1745120;80;21639;-75
2022/08/04 06:59:51;;;;;;;10.93;9.80;;;;;;;20.90;100.00;99372.28;1763869;80;21830;-74
2022/08/04 07:02:21;;;;;;;10.48;9.58;;;;;;;20.87;100.00;99366.77;1762715;80;22019;-75
2022/08/04 07:04:48;;;;;;;10.40;9.60;;;;;;;20.89;100.00;99367.95;1767675;79;21096;-75
2022/08/04 07:07:16;;;;;;;11.10;10.00;;;;;;;20.93;100.00;99377.31;1714468;82;21113;-74
2022/08/04 07:09:43;;;;;;;11.53;9.68;;;;;;;20.95;100.00;99372.25;1691793;83;21113;-73
2022/08/04 07:12:09;;;;;;;10.15;9.35;;;;;;;20.98;100.00;99371.16;1716012;83;21285;-74
2022/08/04 07:14:36;;;;;;;10.38;9.50;;;;;;;21.02;100.00;99364.61;1720404;82;22264;-77
2022/08/04 07:17:06;;;;;;;11.78;9.83;;;;;;;21.09;100.00;99374.18;1716459;82;21011;-74
2022/08/04 07:19:35;;;;;;;10.65;9.75;;;;;;;21.12;100.00;99368.14;1700725;82;21543;-77
2022/08/04 07:22:03;;;;;;;10.95;10.03;;;;;;;21.17;100.00;99367.27;1689560;82;21079;-76
2022/08/04 07:24:31;;;;;;;11.33;10.32;;;;;;;21.20;100.00;99375.42;1681698;83;21282;-74
2022/08/04 07:26:58;;;;;;;12.25;11.10;;;;;;;21.26;100.00;99365.16;1676399;83;22094;-74
2022/08/04 07:29:25;;;;;;;11.80;10.80;;;;;;;21.33;100.00;99368.13;1721153;83;21029;-75
2022/08/04 07:31:54;;;;;;;11.35;10.45;;;;;;;21.33;100.00;99369.44;1730012;81;21613;-74
2022/08/04 07:34:20;;;;;;;11.28;10.18;;;;;;;21.34;100.00;99371.13;1739519;80;21083;-75
2022/08/04 07:36:49;;;;;;;11.30;10.30;;;;;;;21.33;100.00;99365.48;1736283;80;21938;-76
2022/08/04 07:39:16;;;;;;;12.37;11.05;;;;;;;21.31;100.00;99372.22;1750602;81;21001;-75
2022/08/04 07:41:44;;;;;;;12.47;11.38;;;;;;;21.27;100.00;99372.12;1761840;81;21137;-74
2022/08/04 07:44:13;;;;;;;12.43;11.33;;;;;;;21.20;100.00;99369.66;1761167;80;21230;-76
2022/08/04 07:46:41;;;;;;;12.55;11.53;;;;;;;21.17;100.00;99367.27;1701322;82;21167;-74
2022/08/04 07:49:08;;;;;;;19.55;12.45;;;;;;;21.18;100.00;99366.27;1746173;81;21135;-74
2022/08/04 07:51:35;;;;;;;13.13;11.63;;;;;;;21.28;100.00;99374.29;1725018;81;21077;-76
2022/08/04 07:54:03;;;;;;;12.47;11.28;;;;;;;21.45;100.00;99364.39;1756383;80;21038;-74
2022/08/04 07:56:32;;;;;;;13.22;11.10;;;;;;;21.68;100.00;99365.00;1754396;81;21045;-73
2022/08/04 07:58:59;;;;;;;13.25;11.95;;;;;;;21.95;99.67;99362.55;1756335;80;21041;-76
2022/08/04 08:01:26;;;;;;;11.45;10.45;;;;;;;22.25;98.11;99367.38;1710689;81;21900;-76
2022/08/04 08:03:55;;;;;;;12.80;11.70;;;;;;;22.50;95.18;99362.83;1713725;82;21090;-75
2022/08/04 08:06:24;;;;;;;13.05;11.83;;;;;;;22.70;92.84;99367.61;1678637;83;21035;-77
2022/08/04 08:08:52;;;;;;;12.15;11.20;;;;;;;22.86;92.89;99367.87;1719327;81;21016;-76
2022/08/04 08:11:19;;;;;;;12.47;11.38;;;;;;;22.95;92.10;99366.18;1751785;80;21544;-76
2022/08/04 08:13:46;;;;;;;11.95;10.78;;;;;;;22.95;90.42;99364.37;1695112;83;21240;-74
2022/08/04 08:16:13;;;;;;;13.55;11.97;;;;;;;22.95;90.16;99367.51;1707366;83;21038;-74
2022/08/04 08:18:39;;;;;;;13.38;11.18;;;;;;;22.92;89.91;99370.44;1689936;83;21654;-74
2022/08/04 08:21:06;;;;;;;12.35;11.15;;;;;;;22.94;90.62;99368.00;1712820;82;21058;-74
2022/08/04 08:23:34;;;;;;;12.53;11.43;;;;;;;22.99;88.79;99369.70;1729408;82;21038;-74
2022/08/04 08:26:01;;;;;;;12.18;11.08;;;;;;;22.99;89.27;99370.19;1730438;82;21212;-74
2022/08/04 08:28:28;;;;;;;12.13;10.85;;;;;;;23.00;88.50;99372.70;1719369;82;21096;-74
2022/08/04 08:30:54;;;;;;;14.45;12.13;;;;;;;23.00;88.22;99370.05;1759995;80;21445;-74
2022/08/04 08:33:22;;;;;;;13.08;11.48;;;;;;;23.08;89.12;99360.54;1759076;81;21088;-76
2022/08/04 08:36:03;;;;;;;12.20;11.10;;;;;;;23.26;88.24;99367.58;1714486;80;21076;-74
2022/08/04 08:38:48;;;;;;;12.95;11.63;;;;;;;23.43;87.29;99365.12;1765129;80;21270;-75
2022/08/04 08:42:03;;;;;;;13.72;12.33;;;;;;;23.62;86.21;99354.42;1710326;80;21181;-74
2022/08/04 08:45:07;;;;;;;12.30;11.12;;;;;;;23.80;84.54;99358.43;1761602;79;22219;-76
2022/08/04 08:48:09;;;;;;;11.40;10.38;;;;;;;23.97;83.06;99354.98;1765701;80;21031;-75
2022/08/04 08:51:17;;;;;;;10.68;9.78;;;;;;;24.12;81.77;99359.26;1760107;80;21033;-75
2022/08/04 08:54:15;;;;;;;12.20;11.10;;;;;;;24.18;80.45;99358.66;1749003;80;21844;-75
2022/08/04 08:57:17;;;;;;;11.90;10.90;;;;;;;24.18;81.16;99350.16;1696950;81;21034;-75
2022/08/04 09:00:02;;;;;;;12.25;11.00;;;;;;;24.09;80.73;99351.59;1758021;80;21077;-74
2022/08/04 09:03:16;;;;;;;14.03;10.30;;;;;;;23.91;81.51;99359.56;1771211;80;21096;-73
2022/08/04 09:06:10;;;;;;;11.60;10.23;;;;;;;23.87;81.99;99361.67;1738470;81;21044;-75
2022/08/04 09:09:16;;;;;;;15.95;10.35;;;;;;;24.00;81.25;99358.63;1738851;81;21930;-76
2022/08/04 09:12:21;;;;;;;10.88;9.85;;;;;;;24.17;80.16;99353.84;1705229;81;21136;-74
2022/08/04 09:14:53;;;;;;;10.72;9.68;;;;;;;24.33;78.55;99350.50;1685156;83;21051;-75
2022/08/04 09:17:24;;;;;;;10.20;9.08;;;;;;;24.41;77.25;99348.39;1726945;81;21035;-75
2022/08/04 09:20:02;;;;;;;9.70;8.45;;;;;;;24.43;77.42;99351.23;1772838;80;22128;-74
2022/08/04 09:22:34;;;;;;;10.38;9.25;;;;;;;24.45;77.88;99353.25;1776301;80;21185;-75
2022/08/04 09:25:09;;;;;;;10.28;9.28;;;;;;;24.48;78.08;99353.44;1783307;79;20922;-74
2022/08/04 09:27:54;;;;;;;10.53;9.43;;;;;;;24.41;77.68;99355.87;1754100;79;21935;-76
2022/08/04 09:30:31;;;;;;;10.65;9.65;;;;;;;24.25;77.98;99358.40;1758097;79;21204;-74
2022/08/04 09:33:19;;;;;;;10.32;9.43;;;;;;;24.11;78.47;99350.45;1764909;79;21072;-75
2022/08/04 09:36:14;;;;;;;11.70;9.53;;;;;;;24.00;78.47;99354.16;1741319;80;21245;-75
2022/08/04 09:38:50;;;;;;;10.00;9.10;;;;;;;23.95;79.25;99355.13;1773445;79;21458;-72
2022/08/04 09:41:46;;;;;;;11.03;9.93;;;;;;;23.99;78.58;99355.63;1761037;80;21146;-76
2022/08/04 09:44:36;;;;;;;9.40;8.63;;;;;;;24.04;79.41;99359.52;1773051;80;21010;-83
2022/08/04 09:47:17;;;;;;;9.30;8.50;;;;;;;24.11;79.36;99357.59;1769438;80;21021;-81
2022/08/04 09:50:02;;;;;;;9.85;9.05;;;;;;;24.19;79.18;99357.14;1733276;80;21969;-81
2022/08/04 09:52:58;;;;;;;9.60;8.90;;;;;;;24.30;79.24;99356.13;1738321;80;21162;-82
2022/08/04 09:55:49;;;;;;;9.78;8.95;;;;;;;24.43;78.54;99363.69;1757227;81;21057;-79
2022/08/04 09:58:27;;;;;;;10.28;9.20;;;;;;;24.35;75.20;99359.16;1713390;82;21119;-79
2022/08/04 10:01:07;;;;;;;11.43;10.05;;;;;;;24.16;76.55;99358.81;1691943;83;21693;-83
2022/08/04 10:03:44;;;;;;;11.00;9.93;;;;;;;24.14;78.18;99354.63;1690362;83;21778;-82
2022/08/04 10:06:54;;;;;;;10.25;9.20;;;;;;;24.20;77.15;99357.48;1664295;84;21155;-81
2022/08/04 10:09:52;;;;;;;12.23;10.20;;;;;;;24.39;76.49;99360.00;1686132;83;21120;-83
2022/08/04 10:12:53;;;;;;;11.18;8.78;;;;;;;24.65;75.76;99354.72;1671333;84;21072;-81
2022/08/04 10:15:33;;;;;;;9.85;9.05;;;;;;;24.96;74.48;99352.97;1672911;84;21928;-82
2022/08/04 10:18:24;;;;;;;10.13;9.13;;;;;;;25.13;73.87;99349.39;1686515;83;21139;-82
2022/08/04 10:21:26;;;;;;;12.98;10.03;;;;;;;25.28;73.60;99343.80;1706406;83;21030;-83
2022/08/04 10:24:40;;;;;;;10.13;8.98;;;;;;;25.41;72.60;99338.00;1711500;82;21079;-81
2022/08/04 10:27:16;;;;;;;9.38;8.53;;;;;;;25.57;71.88;99341.24;1693445;83;21094;-82
2022/08/04 10:29:45;;;;;;;10.05;9.05;;;;;;;25.67;70.32;99328.14;1693985;82;21000;-80
2022/08/04 10:32:28;;;;;;;10.10;9.13;;;;;;;25.62;69.92;99338.44;1721770;82;21246;-79
2022/08/04 10:35:10;;;;;;;;;;;;;;;25.41;69.86;99332.19;1732070;81;21236;-79
2022/08/04 10:38:05;;;;;;;9.95;9.18;;;;;;;25.24;69.81;99338.94;1749325;80;20191;-79
2022/08/04 10:40:44;;;;;;;10.13;9.20;;;;;;;25.18;70.83;99335.08;1749431;81;21413;-79
2022/08/04 10:43:20;;;;;;;9.45;8.73;;;;;;;25.34;71.39;99330.34;1738496;81;21068;-78
2022/08/04 10:46:20;;;;;;;13.43;8.85;;;;;;;25.47;71.27;99332.55;1757436;80;22228;-78
2022/08/04 10:49:08;;;;;;;9.75;8.80;;;;;;;25.49;70.22;99337.21;1744835;81;20961;-75
2022/08/04 10:51:49;;;;;;;10.85;9.98;;;;;;;25.51;70.38;99330.73;1750076;80;21040;-74
2022/08/04 10:54:46;;;;;;;14.83;8.70;;;;;;;25.66;70.57;99334.45;1748203;81;21112;-76
2022/08/04 10:57:50;;;;;;;10.40;9.30;;;;;;;25.80;69.13;99337.47;1742308;81;20978;-75
2022/08/04 11:00:28;;;;;;;10.13;9.33;;;;;;;25.95;67.94;99331.36;1751190;80;21995;-74
2022/08/04 11:03:27;;;;;;;12.05;9.43;;;;;;;26.13;68.10;99329.03;1736479;80;21197;-74
2022/08/04 11:06:02;;;;;;;9.63;8.78;;;;;;;26.15;67.64;99343.03;1752711;81;21553;-72
2022/08/04 11:08:34;;;;;;;9.20;8.50;;;;;;;26.00;66.60;99326.84;1759283;80;21101;-74
2022/08/04 11:11:07;;;;;;;9.93;9.23;;;;;;;25.92;66.75;99327.69;1725137;79;21429;-76
2022/08/04 11:13:48;;;;;;;9.08;7.95;;;;;;;25.98;66.94;99320.34;1734001;80;21145;-74
2022/08/04 11:16:29;;;;;;;9.43;8.60;;;;;;;26.11;66.88;99315.03;1763461;80;21017;-74
2022/08/04 11:19:07;;;;;;;9.33;8.23;;;;;;;26.07;66.48;99311.86;1768315;79;20964;-75
2022/08/04 11:21:43;;;;;;;8.98;8.18;;;;;;;25.96;66.08;99314.87;1736690;81;21047;-74
2022/08/04 11:24:27;;;;;;;10.50;8.15;;;;;;;25.92;65.63;99313.53;1727072;82;21118;-74
2022/08/04 11:27:04;;;;;;;8.73;8.13;;;;;;;26.04;65.96;99305.53;1732774;81;21510;-73
2022/08/04 11:29:45;;;;;;;8.75;8.05;;;;;;;26.27;65.34;99312.36;1727872;81;21102;-72
2022/08/04 11:32:20;;;;;;;8.98;8.18;;;;;;;26.39;63.66;99307.04;1732159;81;21507;-74
2022/08/04 11:34:54;;;;;;;8.90;8.20;;;;;;;26.38;65.21;99298.70;1719575;81;21106;-73
2022/08/04 11:37:28;;;;;;;11.45;8.70;;;;;;;26.46;65.07;99305.88;1714603;82;21050;-73
2022/08/04 11:39:59;;;;;;;8.95;8.15;;;;;;;26.51;65.01;99299.54;1732281;81;21392;-74
2022/08/04 11:42:42;;;;;;;8.98;8.13;;;;;;;26.64;63.74;99294.50;1731083;80;21127;-78
2022/08/04 11:45:17;;;;;;;8.53;7.55;;;;;;;26.82;63.59;99303.12;1740204;81;21761;-82
2022/08/04 11:47:59;;;;;;;11.33;7.83;;;;;;;27.00;62.58;99294.92;1736155;81;21042;-80
2022/08/04 11:50:40;;;;;;;9.60;8.73;;;;;;;27.11;60.60;99307.91;1700353;82;21029;-81
2022/08/04 11:53:08;;;;;;;8.68;8.08;;;;;;;27.09;60.61;99304.58;1753857;81;21149;-80
2022/08/04 11:55:35;;;;;;;8.73;8.03;;;;;;;27.04;61.25;99298.91;1762638;81;20953;-81
2022/08/04 11:58:02;;;;;;;9.50;8.55;;;;;;;26.99;61.39;99309.27;1758472;81;21038;-83
2022/08/04 12:00:30;;;;;;;9.85;8.85;;;;;;;26.82;62.10;99303.12;1718714;81;21115;-82
2022/08/04 12:03:21;;;;;;;10.18;9.28;;;;;;;26.57;63.09;99302.38;1754730;80;20957;-83
2022/08/04 12:06:18;;;;;;;9.55;8.70;;;;;;;26.33;63.94;99291.73;1757799;81;21248;-82
2022/08/04 12:09:00;;;;;;;9.30;8.35;;;;;;;26.18;63.92;99282.20;1748794;81;21045;-77
2022/08/04 12:11:44;;;;;;;9.40;8.53;;;;;;;26.11;64.21;99279.05;1755596;81;21164;-79
2022/08/04 12:14:58;;;;;;;8.55;7.92;;;;;;;26.18;64.46;99279.53;1758091;80;21498;-82
2022/08/04 12:17:30;;;;;;;8.78;8.18;;;;;;;26.37;63.71;99271.23;1758008;81;21489;-75
2022/08/04 12:20:04;;;;;;;8.45;7.80;;;;;;;26.65;62.15;99264.98;1752788;80;21187;-76
2022/08/04 12:22:36;;;;;;;7.72;7.12;;;;;;;26.78;61.29;99273.28;1739254;81;21560;-80